Time;durP1;ratioP1;P1;durP2;ratioP2;P2;SDS_P1;SDS_P2;PMS_P1;PMS_P2;Temp;Humidity;BMP_temperature;BMP_pressure;BME280_temperature;BME280_humidity;BME280_pressure;Samples;Min_cycle;Max_cycle;Signal;HPM_P1;HPM_P2
2022/05/01 00:00:20;;;;;;;36.45;31.45;;;;;;;7.62;100.00;96284.91;4992634;28;21283;-72
2022/05/01 00:02:47;;;;;;;39.07;32.80;;;;;;;7.72;100.00;96287.94;4992379;28;20801;-72
2022/05/01 00:05:14;;;;;;;37.83;31.83;;;;;;;7.74;100.00;96289.50;4992593;28;20879;-72
2022/05/01 00:07:40;;;;;;;40.40;33.90;;;;;;;7.80;100.00;96282.44;4992420;28;24428;-72
2022/05/01 00:10:09;;;;;;;41.40;33.00;;;;;;;7.72;100.00;96293.91;4992384;28;24950;-72
2022/05/01 00:12:36;;;;;;;41.22;34.00;;;;;;;7.75;100.00;96287.81;4991966;28;24417;-72
2022/05/01 00:15:05;;;;;;;40.08;34.47;;;;;;;7.75;100.00;96282.66;4991833;28;24416;-72
2022/05/01 00:17:31;;;;;;;46.20;36.15;;;;;;;7.65;100.00;96284.78;4992150;28;25009;-72
2022/05/01 00:19:58;;;;;;;44.75;36.30;;;;;;;7.55;100.00;96292.97;4992317;28;24823;-72
2022/05/01 00:22:24;;;;;;;45.90;36.33;;;;;;;7.43;100.00;96289.16;4991794;28;24452;-72
2022/05/01 00:24:51;;;;;;;37.95;33.85;;;;;;;7.49;100.00;96287.16;4991993;28;24428;-72
2022/05/01 00:27:17;;;;;;;39.05;32.83;;;;;;;7.55;100.00;96287.81;4991727;28;24433;-72
2022/05/01 00:29:44;;;;;;;41.50;33.55;;;;;;;7.59;100.00;96284.19;4992312;28;24918;-72
2022/05/01 00:32:12;;;;;;;37.28;32.22;;;;;;;7.63;100.00;96278.00;4992162;28;24424;-72
2022/05/01 00:37:22;;;;;;;34.22;30.48;;;;;;;7.71;100.00;96269.03;4991861;28;20882;-72
2022/05/01 00:39:49;;;;;;;37.55;32.00;;;;;;;7.77;100.00;96270.50;4992143;28;24429;-72
2022/05/01 00:42:17;;;;;;;36.72;30.65;;;;;;;7.74;100.00;96270.63;4991704;28;24491;-72
2022/05/01 00:44:43;;;;;;;32.23;28.93;;;;;;;7.76;100.00;96271.41;4992074;28;20757;-72
2022/05/01 00:47:11;;;;;;;34.70;30.13;;;;;;;7.79;100.00;96266.13;4991623;28;24424;-72
2022/05/01 00:49:37;;;;;;;41.50;29.77;;;;;;;7.80;100.00;96266.97;4991673;28;24428;-72
2022/05/01 00:52:08;;;;;;;36.00;30.35;;;;;;;7.78;100.00;96259.28;4991294;28;24438;-72
2022/05/01 00:54:37;;;;;;;33.90;30.40;;;;;;;7.75;100.00;96267.16;4992072;28;20660;-72
2022/05/01 00:57:06;;;;;;;34.00;29.73;;;;;;;7.77;100.00;96265.34;4991651;28;20730;-71
2022/05/01 00:59:33;;;;;;;35.80;31.20;;;;;;;7.65;100.00;96263.31;4991725;28;21139;-71
2022/05/01 01:02:00;;;;;;;35.15;31.55;;;;;;;7.55;100.00;96256.88;4991267;28;21384;-71
2022/05/01 01:04:28;;;;;;;36.43;32.17;;;;;;;7.57;100.00;96263.66;4991463;28;20749;-72
2022/05/01 01:06:54;;;;;;;51.65;36.70;;;;;;;7.57;100.00;96263.66;4991277;28;21116;-71
2022/05/01 01:09:20;;;;;;;38.58;34.30;;;;;;;7.58;100.00;96262.72;4991633;28;24823;-72
2022/05/01 01:11:47;;;;;;;37.78;33.60;;;;;;;7.56;100.00;96258.53;4991245;28;24409;-72
2022/05/01 01:14:16;;;;;;;40.63;34.58;;;;;;;7.40;100.00;96273.81;4991356;28;24424;-72
2022/05/01 01:16:44;;;;;;;46.22;34.97;;;;;;;7.32;100.00;96269.00;4991330;28;20720;-72
2022/05/01 01:19:11;;;;;;;39.97;34.50;;;;;;;7.37;100.00;96274.78;4991165;28;24523;-72
2022/05/01 01:21:39;;;;;;;38.45;34.22;;;;;;;7.30;100.00;96268.22;4991235;28;21326;-72
2022/05/01 01:24:09;;;;;;;40.40;34.95;;;;;;;7.21;100.00;96266.03;4991167;28;24470;-71
2022/05/01 01:26:36;;;;;;;44.97;35.87;;;;;;;7.26;100.00;96266.66;4991713;28;20841;-72
2022/05/01 01:31:40;;;;;;;39.45;35.20;;;;;;;7.41;100.00;96266.00;4991210;28;24425;-72
2022/05/01 01:31:53;;;;;;;45.90;34.83;;;;;;;7.28;100.00;96260.56;4990624;28;24423;-72
2022/05/01 01:34:21;;;;;;;41.78;34.95;;;;;;;7.30;100.00;96263.06;4991299;28;24421;-72
2022/05/01 01:36:50;;;;;;;42.88;37.33;;;;;;;7.16;100.00;96255.09;4991112;28;21142;-72
2022/05/01 01:39:18;;;;;;;43.47;36.40;;;;;;;7.10;100.00;96258.75;4991209;28;20810;-72
2022/05/01 01:41:47;;;;;;;43.03;36.72;;;;;;;7.07;100.00;96258.03;4990833;28;24461;-72
2022/05/01 01:44:14;;;;;;;46.72;37.38;;;;;;;7.13;100.00;96252.63;4990957;28;21120;-72
2022/05/01 01:46:41;;;;;;;47.80;39.60;;;;;;;7.02;100.00;96255.66;4991182;28;24828;-72
2022/05/01 01:49:09;;;;;;;41.03;36.45;;;;;;;7.11;100.00;96250.09;4991094;28;24413;-72
2022/05/01 01:51:35;;;;;;;43.97;37.47;;;;;;;7.16;100.00;96249.94;4991250;28;20788;-72
2022/05/01 01:54:03;;;;;;;45.03;37.47;;;;;;;7.06;100.00;96249.47;4990768;28;24452;-72
2022/05/01 01:56:31;;;;;;;51.42;38.65;;;;;;;7.01;100.00;96241.94;4990926;28;20769;-71
2022/05/01 01:58:57;;;;;;;43.20;38.53;;;;;;;6.95;100.00;96242.19;4991338;28;20758;-72
2022/05/01 02:01:25;;;;;;;54.55;39.60;;;;;;;6.93;100.00;96243.97;4990933;28;24432;-72
2022/05/01 02:03:51;;;;;;;44.92;39.10;;;;;;;6.86;100.00;96237.44;4990682;28;24495;-71
2022/05/01 02:06:19;;;;;;;50.13;39.60;;;;;;;6.88;100.00;96229.63;4990587;28;24453;-71
2022/05/01 02:08:47;;;;;;;42.80;38.13;;;;;;;6.93;100.00;96230.25;4990743;28;24989;-71
2022/05/01 02:11:15;;;;;;;41.13;36.67;;;;;;;6.98;100.00;96231.75;4990585;28;20764;-71
2022/05/01 02:13:42;;;;;;;48.67;38.37;;;;;;;7.00;100.00;96236.84;4990800;28;24517;-71
2022/05/01 02:16:08;;;;;;;40.28;35.55;;;;;;;7.06;100.00;96230.59;4990733;28;24432;-71
2022/05/01 02:18:35;;;;;;;43.20;36.13;;;;;;;7.04;100.00;96230.66;4990777;28;20771;-71
2022/05/01 02:23:45;;;;;;;43.00;36.05;;;;;;;6.95;100.00;96228.47;4990233;28;24471;-71
2022/05/01 02:26:12;;;;;;;43.88;36.83;;;;;;;6.92;100.00;96226.03;4990307;28;25025;-72
2022/05/01 02:28:40;;;;;;;40.28;35.97;;;;;;;6.90;100.00;96226.09;4990540;28;24453;-71
2022/05/01 02:31:07;;;;;;;40.03;35.65;;;;;;;6.88;100.00;96227.03;4990687;28;24424;-71
2022/05/01 02:33:33;;;;;;;41.90;36.92;;;;;;;6.86;100.00;96221.97;4990520;28;20780;-71
2022/05/01 02:36:00;;;;;;;42.05;36.72;;;;;;;6.83;100.00;96224.66;4990301;28;25010;-71
2022/05/01 02:38:26;;;;;;;43.13;36.42;;;;;;;6.85;100.00;96222.03;4993335;28;25005;-71
2022/05/01 02:40:53;;;;;;;39.55;35.00;;;;;;;6.95;100.00;96221.59;4994196;28;24432;-70
2022/05/01 02:43:19;;;;;;;44.05;36.15;;;;;;;7.02;100.00;96215.28;4994016;28;24441;-70
2022/05/01 02:45:47;;;;;;;41.65;34.78;;;;;;;7.10;100.00;96224.44;4993932;28;24428;-70
2022/05/01 02:48:13;;;;;;;40.05;34.38;;;;;;;7.02;100.00;96217.84;4994364;28;24421;-70
2022/05/01 02:50:40;;;;;;;41.42;34.58;;;;;;;7.07;100.00;96214.25;4993727;28;24424;-70
2022/05/01 02:53:06;;;;;;;39.53;35.28;;;;;;;6.96;100.00;96214.69;4993490;28;24977;-70
2022/05/01 02:55:33;;;;;;;46.20;35.97;;;;;;;6.93;100.00;96215.66;4993895;28;24428;-71
2022/05/01 02:58:00;;;;;;;41.25;34.40;;;;;;;6.93;100.00;96214.81;4993757;28;24440;-70
2022/05/01 03:00:26;;;;;;;38.88;34.63;;;;;;;7.11;100.00;96210.63;4993815;28;24516;-71
2022/05/01 03:02:56;;;;;;;41.97;32.97;;;;;;;7.14;100.00;96213.91;4993426;28;24985;-70
2022/05/01 03:05:24;;;;;;;38.43;31.87;;;;;;;7.21;100.00;96210.19;4993379;28;24503;-70
2022/05/01 03:07:50;;;;;;;38.13;33.50;;;;;;;7.26;100.00;96203.09;4993685;28;24487;-71
2022/05/01 03:10:17;;;;;;;36.60;31.27;;;;;;;7.22;100.00;96204.13;4993511;28;25016;-71
2022/05/01 03:12:43;;;;;;;36.58;32.38;;;;;;;7.19;100.00;96208.56;4993400;28;24484;-71
2022/05/01 03:15:10;;;;;;;33.20;29.60;;;;;;;7.24;100.00;96201.50;4993263;28;25049;-71
2022/05/01 03:23:07;;;;;;;32.55;28.08;;;;;;;7.39;100.00;96197.44;4993423;28;24503;-71
2022/05/01 03:25:34;;;;;;;38.10;28.02;;;;;;;7.44;100.00;96191.16;4993118;28;24428;-71
2022/05/01 03:28:00;;;;;;;30.52;27.25;;;;;;;7.41;100.00;96187.88;4992939;28;24984;-70
2022/05/01 03:30:27;;;;;;;30.20;27.08;;;;;;;7.44;100.00;96188.59;4993154;28;20780;-70
2022/05/01 03:32:54;;;;;;;30.67;26.48;;;;;;;7.47;100.00;96191.03;4993256;28;20848;-70
2022/05/01 03:35:22;;;;;;;29.77;25.95;;;;;;;7.49;100.00;96191.81;4993021;28;24413;-70
2022/05/01 03:37:50;;;;;;;29.48;26.48;;;;;;;7.50;100.00;96190.91;4992904;28;25057;-70
2022/05/01 03:40:17;;;;;;;31.23;26.08;;;;;;;7.57;100.00;96177.75;4993017;28;24536;-71
2022/05/01 03:42:44;;;;;;;30.58;26.55;;;;;;;7.51;100.00;96192.56;4992815;28;21160;-70
2022/05/01 03:45:11;;;;;;;28.73;24.57;;;;;;;7.52;100.00;96194.22;4993153;28;20765;-70
2022/05/01 03:47:38;;;;;;;31.00;27.73;;;;;;;7.38;100.00;96185.44;4993029;28;20759;-70
2022/05/01 03:50:05;;;;;;;31.73;28.40;;;;;;;7.23;100.00;96187.78;4991892;28;20745;-70
2022/05/01 03:52:33;;;;;;;31.23;25.92;;;;;;;7.36;100.00;96188.09;4992602;28;24413;-70
2022/05/01 03:55:00;;;;;;;28.83;25.75;;;;;;;7.43;100.00;96183.50;4992739;28;20822;-70
2022/05/01 03:57:27;;;;;;;32.05;26.83;;;;;;;7.45;100.00;96182.53;4992435;28;24444;-72
2022/05/01 03:59:53;;;;;;;30.42;25.42;;;;;;;7.54;100.00;96183.88;4992792;28;20820;-70
2022/05/01 04:02:20;;;;;;;28.13;24.38;;;;;;;7.64;100.00;96186.84;4992522;28;20771;-70
2022/05/01 04:04:48;;;;;;;31.60;26.92;;;;;;;7.76;100.00;96186.34;4992266;28;24986;-70
2022/05/01 04:07:14;;;;;;;30.45;27.27;;;;;;;7.75;100.00;96189.81;4992429;28;20832;-70
2022/05/01 04:09:42;;;;;;;29.23;25.75;;;;;;;7.85;100.00;96196.22;4992178;28;24427;-70
2022/05/01 04:12:09;;;;;;;29.92;26.08;;;;;;;7.77;100.00;96195.72;4991879;28;21298;-70
2022/05/01 04:14:36;;;;;;;29.25;26.05;;;;;;;7.75;100.00;96200.13;4992026;28;21286;-70
2022/05/01 04:17:02;;;;;;;29.53;26.37;;;;;;;7.60;100.00;96200.78;4992079;28;21179;-70
2022/05/01 04:19:29;;;;;;;32.63;28.00;;;;;;;7.90;100.00;96194.28;4991636;28;24480;-70
2022/05/01 04:21:56;;;;;;;29.75;26.50;;;;;;;7.89;100.00;96195.16;4991451;28;20793;-70
2022/05/01 04:24:23;;;;;;;31.77;27.37;;;;;;;7.74;100.00;96190.69;4991724;28;24448;-70
2022/05/01 04:26:51;;;;;;;29.83;26.77;;;;;;;7.60;100.00;96193.06;4991840;28;21175;-70
2022/05/01 04:32:01;;;;;;;28.83;25.80;;;;;;;7.83;100.00;96203.19;4992226;28;20670;-71
2022/05/01 04:34:28;;;;;;;30.52;27.33;;;;;;;7.86;100.00;96199.63;4991994;28;20793;-71
2022/05/01 04:36:54;;;;;;;29.42;26.52;;;;;;;7.70;100.00;96200.31;4991852;28;20812;-71
2022/05/01 04:39:20;;;;;;;31.23;27.55;;;;;;;7.65;100.00;96201.44;4991594;28;24955;-70
2022/05/01 04:41:47;;;;;;;30.00;26.25;;;;;;;7.64;100.00;96204.91;4992006;28;24429;-71
2022/05/01 04:44:15;;;;;;;28.60;25.60;;;;;;;7.59;100.00;96204.28;4991875;28;24445;-71
2022/05/01 04:46:41;;;;;;;30.10;26.73;;;;;;;7.55;100.00;96213.06;4991899;28;20828;-70
2022/05/01 04:49:08;;;;;;;29.33;25.67;;;;;;;7.51;100.00;96213.19;4991803;28;24419;-70
2022/05/01 04:51:34;;;;;;;28.08;25.23;;;;;;;7.55;100.00;96213.06;4991619;28;24428;-70
2022/05/01 04:54:00;;;;;;;29.25;26.13;;;;;;;7.48;100.00;96215.88;4991514;28;24424;-70
2022/05/01 04:59:11;;;;;;;38.13;29.63;;;;;;;7.35;100.00;96213.94;4991406;28;24997;-70
2022/05/01 05:01:41;;;;;;;36.50;29.52;;;;;;;7.25;100.00;96228.94;4991379;28;24786;-70
2022/05/01 05:04:07;;;;;;;32.38;28.33;;;;;;;7.34;100.00;96230.28;4991121;28;20687;-70
2022/05/01 05:06:34;;;;;;;35.65;31.05;;;;;;;7.34;100.00;96230.28;4991240;28;24451;-71
2022/05/01 05:11:44;;;;;;;31.42;27.95;;;;;;;7.43;100.00;96229.91;4991384;28;20650;-71
2022/05/01 05:14:11;;;;;;;33.33;29.83;;;;;;;7.47;100.00;96234.84;4991080;28;24424;-70
2022/05/01 05:16:40;;;;;;;34.50;29.67;;;;;;;7.90;100.00;96219.25;4991004;28;24989;-70
2022/05/01 05:19:07;;;;;;;33.70;29.90;;;;;;;7.75;100.00;96229.34;4991692;28;24428;-70
2022/05/01 05:21:34;;;;;;;35.38;30.33;;;;;;;7.63;100.00;96235.00;4991449;28;24428;-70
2022/05/01 05:24:00;;;;;;;32.15;28.75;;;;;;;7.60;100.00;96231.72;4991100;28;24447;-71
2022/05/01 05:26:27;;;;;;;36.33;30.67;;;;;;;7.59;100.00;96237.78;4990936;28;24445;-71
2022/05/01 05:28:53;;;;;;;41.50;30.98;;;;;;;7.74;100.00;96237.94;4991138;28;24424;-71
2022/05/01 05:31:20;;;;;;;32.95;29.42;;;;;;;7.72;100.00;96234.63;4990961;28;24508;-70
2022/05/01 05:33:48;;;;;;;33.00;28.80;;;;;;;7.63;100.00;96239.31;4991044;28;24420;-70
2022/05/01 05:36:14;;;;;;;34.22;30.58;;;;;;;7.44;100.00;96236.72;4991158;28;20772;-70
2022/05/01 05:38:40;;;;;;;32.58;29.13;;;;;;;7.50;100.00;96244.19;4991182;28;24417;-70
2022/05/01 05:41:07;;;;;;;40.00;30.17;;;;;;;7.46;100.00;96247.81;4991238;28;24420;-70
2022/05/01 05:43:33;;;;;;;34.45;29.45;;;;;;;7.59;100.00;96242.94;4990770;28;24437;-70
2022/05/01 05:46:00;;;;;;;34.25;30.48;;;;;;;7.32;100.00;96250.13;4990980;28;24432;-71
2022/05/01 05:48:26;;;;;;;31.77;28.60;;;;;;;7.35;100.00;96252.56;4991111;28;24454;-70
2022/05/01 05:50:54;;;;;;;30.90;27.70;;;;;;;7.31;100.00;96249.28;4991217;28;21123;-70
2022/05/01 05:53:21;;;;;;;30.80;27.38;;;;;;;7.43;100.00;96240.19;4990604;28;24997;-70
2022/05/01 05:55:48;;;;;;;32.65;28.02;;;;;;;7.54;100.00;96247.47;4990708;28;24974;-71
2022/05/01 05:58:15;;;;;;;34.33;28.48;;;;;;;7.40;100.00;96248.06;4990755;28;24425;-71
2022/05/01 06:00:41;;;;;;;32.55;28.45;;;;;;;7.28;100.00;96252.00;4991024;28;24827;-71
2022/05/01 06:03:07;;;;;;;32.85;27.42;;;;;;;7.23;100.00;96251.31;4990625;28;24448;-71
2022/05/01 06:05:34;;;;;;;32.70;27.25;;;;;;;7.35;100.00;96250.00;4990944;28;24421;-70
2022/05/01 06:08:02;;;;;;;28.45;25.05;;;;;;;7.57;100.00;96253.34;4990688;28;25040;-70
2022/05/01 06:10:28;;;;;;;28.63;25.45;;;;;;;7.56;100.00;96249.06;4990874;28;24468;-70
2022/05/01 06:12:55;;;;;;;25.30;22.45;;;;;;;7.54;100.00;96250.88;4993045;28;24424;-70
2022/05/01 06:15:22;;;;;;;27.48;23.38;;;;;;;7.60;100.00;96248.06;4994824;28;24499;-70
2022/05/01 06:17:50;;;;;;;25.48;21.95;;;;;;;7.56;100.00;96248.22;4994705;28;24467;-70
2022/05/01 06:20:16;;;;;;;29.25;24.63;;;;;;;7.38;100.00;96262.72;4994758;28;24425;-70
2022/05/01 06:22:43;;;;;;;33.63;25.48;;;;;;;7.35;100.00;96265.47;4994210;28;24426;-71
2022/05/01 06:25:11;;;;;;;27.50;24.73;;;;;;;7.33;100.00;96264.69;4994380;28;24784;-71
2022/05/01 06:27:37;;;;;;;28.63;24.60;;;;;;;7.24;100.00;96268.47;4994129;28;24425;-71
2022/05/01 06:30:04;;;;;;;28.35;25.13;;;;;;;7.15;100.00;96272.25;4994602;28;20758;-71
2022/05/01 06:32:31;;;;;;;28.40;24.48;;;;;;;7.11;100.00;96270.72;4997046;28;24440;-71
2022/05/01 06:34:57;;;;;;;26.25;23.35;;;;;;;7.08;100.00;96275.16;5005224;28;24431;-71
2022/05/01 06:37:24;;;;;;;26.15;23.40;;;;;;;7.05;100.00;96272.72;5013759;28;24436;-71
2022/05/01 06:39:51;;;;;;;28.27;23.33;;;;;;;7.02;100.00;96269.38;5013760;28;24431;-71
2022/05/01 06:42:19;;;;;;;26.75;23.88;;;;;;;7.07;100.00;96270.91;5013445;28;24427;-71
2022/05/01 06:44:45;;;;;;;29.60;25.48;;;;;;;7.04;100.00;96266.72;5013849;28;24845;-71
2022/05/01 06:47:13;;;;;;;30.85;25.48;;;;;;;7.06;100.00;96269.25;5013405;28;25004;-71
2022/05/01 06:49:39;;;;;;;26.95;24.02;;;;;;;7.11;100.00;96269.88;5013341;28;24990;-71
2022/05/01 06:52:06;;;;;;;25.65;22.73;;;;;;;7.18;100.00;96268.72;5013207;28;24424;-71
2022/05/01 06:54:32;;;;;;;24.58;21.92;;;;;;;7.15;100.00;96269.69;5013594;28;24482;-71
2022/05/01 06:56:59;;;;;;;22.17;19.83;;;;;;;7.24;100.00;96268.47;5013779;28;24801;-71
2022/05/01 06:59:26;;;;;;;19.45;17.38;;;;;;;7.29;100.00;96266.53;5013568;28;24427;-71
2022/05/01 07:01:53;;;;;;;21.15;17.20;;;;;;;7.37;100.00;96272.22;5013103;28;25159;-71
2022/05/01 07:04:19;;;;;;;18.15;16.38;;;;;;;7.52;100.00;96274.13;5013279;28;24965;-71
2022/05/01 07:06:46;;;;;;;26.33;19.83;;;;;;;7.75;100.00;96274.91;5013353;28;20868;-71
2022/05/01 07:09:12;;;;;;;24.35;21.02;;;;;;;7.97;100.00;96267.03;5013444;28;20860;-71
2022/05/01 07:11:39;;;;;;;21.38;19.02;;;;;;;8.11;100.00;96271.59;5013171;28;24980;-71
2022/05/01 07:14:06;;;;;;;21.03;18.93;;;;;;;8.10;100.00;96275.09;5013186;28;24547;-71
2022/05/01 07:16:34;;;;;;;20.70;18.57;;;;;;;8.15;100.00;96262.81;5013180;28;24425;-71
2022/05/01 07:19:00;;;;;;;27.60;18.58;;;;;;;8.19;100.00;96267.78;5013395;28;24474;-71
2022/05/01 07:21:26;;;;;;;19.60;17.08;;;;;;;8.33;100.00;96261.97;5013018;28;24949;-71
2022/05/01 07:23:53;;;;;;;22.67;20.47;;;;;;;8.49;100.00;96267.28;5012615;28;24471;-71
2022/05/01 07:26:20;;;;;;;25.48;21.30;;;;;;;8.55;100.00;96266.16;5013426;28;24432;-72
2022/05/01 07:28:46;;;;;;;20.50;18.38;;;;;;;8.69;100.00;96266.34;5012996;28;24428;-72
2022/05/01 07:31:13;;;;;;;23.40;16.52;;;;;;;8.64;100.00;96268.31;5012948;28;24408;-72
2022/05/01 07:33:41;;;;;;;16.77;14.98;;;;;;;8.57;100.00;96262.63;5012549;28;24980;-72
2022/05/01 07:36:07;;;;;;;18.70;15.48;;;;;;;8.72;100.00;96264.47;5012785;28;24467;-70
2022/05/01 07:38:34;;;;;;;18.98;16.85;;;;;;;8.70;100.00;96261.09;5012757;28;24424;-71
2022/05/01 07:41:00;;;;;;;17.77;15.77;;;;;;;8.71;100.00;96256.78;5013028;28;21375;-71
2022/05/01 07:43:27;;;;;;;17.35;15.40;;;;;;;8.77;100.00;96253.91;5012696;28;20759;-71
2022/05/01 07:45:53;;;;;;;18.88;15.70;;;;;;;8.93;100.00;96256.59;5012436;28;24428;-71
2022/05/01 07:48:20;;;;;;;17.35;15.15;;;;;;;8.93;100.00;96257.41;5012666;28;20758;-71
2022/05/01 07:50:48;;;;;;;19.10;16.33;;;;;;;8.90;100.00;96254.19;5012669;28;20771;-71
2022/05/01 07:53:16;;;;;;;23.02;18.30;;;;;;;8.82;100.00;96257.09;5012266;28;24976;-72
2022/05/01 07:55:43;;;;;;;25.03;19.10;;;;;;;8.91;100.00;96263.59;5012249;28;20804;-72
2022/05/01 07:58:09;;;;;;;22.38;16.45;;;;;;;9.24;100.00;96255.94;5012489;28;24523;-72
2022/05/01 08:00:36;;;;;;;19.67;17.17;;;;;;;9.22;100.00;96260.34;5012448;28;24433;-72
2022/05/01 08:05:47;;;;;;;19.25;16.55;;;;;;;9.16;100.00;96245.16;5012132;28;24404;-72
2022/05/01 08:08:14;;;;;;;19.00;17.00;;;;;;;8.96;100.00;96249.53;5012435;28;24413;-72
2022/05/01 08:10:40;;;;;;;20.08;17.05;;;;;;;9.01;100.00;96251.03;5012159;28;24424;-72
2022/05/01 08:13:07;;;;;;;16.27;14.50;;;;;;;9.43;100.00;96248.94;5011928;28;24443;-72
2022/05/01 08:15:34;;;;;;;18.88;16.70;;;;;;;9.37;100.00;96249.22;5012047;28;20758;-72
2022/05/01 08:23:26;;;;;;;17.38;15.50;;;;;;;9.10;100.00;96250.59;5011460;28;20717;-72
2022/05/01 08:25:53;;;;;;;18.27;15.35;;;;;;;9.12;100.00;96252.22;5011743;28;24418;-72
2022/05/01 08:28:19;;;;;;;16.38;14.60;;;;;;;9.34;100.00;96249.38;5011739;28;21318;-72
2022/05/01 08:30:46;;;;;;;17.73;15.82;;;;;;;9.75;100.00;96258.53;5011888;28;24423;-72
2022/05/01 08:33:13;;;;;;;17.13;15.10;;;;;;;10.12;100.00;96252.25;5011487;28;25071;-72
2022/05/01 08:35:39;;;;;;;16.08;14.48;;;;;;;9.97;100.00;96250.47;5011364;28;20758;-71
2022/05/01 08:38:08;;;;;;;16.52;14.65;;;;;;;9.94;100.00;96256.69;5011825;28;20778;-72
2022/05/01 08:40:36;;;;;;;17.13;14.32;;;;;;;9.85;100.00;96254.56;5011663;28;24424;-72
2022/05/01 08:43:03;;;;;;;15.27;13.35;;;;;;;9.80;100.00;96249.63;5011209;28;20766;-72
2022/05/01 08:45:42;;;;;;;17.60;15.00;;;;;;;9.81;100.00;96250.47;5011362;28;24817;-72
2022/05/01 08:48:16;;;;;;;14.95;13.45;;;;;;;9.79;100.00;96254.84;5011467;28;20763;-72
2022/05/01 08:50:43;;;;;;;14.40;12.88;;;;;;;9.86;100.00;96245.88;5011487;28;24523;-71
2022/05/01 08:53:10;;;;;;;15.17;13.50;;;;;;;9.87;100.00;96253.56;5011608;28;24439;-72
2022/05/01 08:55:39;;;;;;;15.10;13.32;;;;;;;9.99;100.00;96257.25;5011369;28;24417;-72
2022/05/01 08:58:08;;;;;;;16.17;13.70;;;;;;;10.21;100.00;96254.38;5011439;28;24420;-72
2022/05/01 09:00:36;;;;;;;17.13;14.60;;;;;;;10.60;100.00;96253.97;5011285;28;24981;-71
2022/05/01 09:03:06;;;;;;;16.63;13.63;;;;;;;10.43;100.00;96255.84;5011036;28;24530;-72
2022/05/01 09:05:33;;;;;;;16.00;12.88;;;;;;;10.43;100.00;96255.84;5011141;28;24448;-72
2022/05/01 09:07:59;;;;;;;13.45;11.85;;;;;;;10.58;100.00;96248.06;5011201;28;24483;-72
2022/05/01 09:10:27;;;;;;;14.68;12.57;;;;;;;10.61;100.00;96249.66;5011234;28;24424;-72
2022/05/01 09:12:54;;;;;;;13.43;12.00;;;;;;;10.55;100.00;96256.00;5011185;28;24421;-72
2022/05/01 09:15:29;;;;;;;12.80;11.50;;;;;;;10.45;100.00;96254.81;5009260;28;24954;-71
2022/05/01 09:18:03;;;;;;;12.88;11.50;;;;;;;10.24;100.00;96250.78;5010835;28;24424;-71
2022/05/01 09:20:30;;;;;;;14.05;12.65;;;;;;;10.16;100.00;96251.19;5010523;28;24974;-71
2022/05/01 09:22:58;;;;;;;16.05;12.95;;;;;;;10.15;100.00;96257.28;5010251;28;24786;-71
2022/05/01 09:25:27;;;;;;;16.63;12.75;;;;;;;10.35;100.00;96251.06;5010486;28;24841;-71
2022/05/01 09:27:59;;;;;;;14.95;12.43;;;;;;;10.39;100.00;96261.19;5010706;28;24993;-71
2022/05/01 09:30:32;;;;;;;17.98;13.25;;;;;;;10.20;100.00;96252.72;5011171;28;24844;-71
2022/05/01 09:32:59;;;;;;;12.65;11.35;;;;;;;10.51;100.00;96264.03;5010686;28;24520;-71
2022/05/01 09:35:31;;;;;;;13.07;11.75;;;;;;;10.80;100.00;96255.47;5010800;28;24416;-71
2022/05/01 09:38:14;;;;;;;12.95;11.38;;;;;;;10.50;100.00;96264.94;5010685;28;24432;-71
2022/05/01 09:40:41;;;;;;;13.13;11.52;;;;;;;10.46;100.00;96263.44;5010763;28;24412;-71
2022/05/01 09:43:09;;;;;;;13.18;11.57;;;;;;;10.37;100.00;96262.16;5005824;28;24441;-71
2022/05/01 09:45:35;;;;;;;21.05;11.45;;;;;;;10.45;100.00;96262.59;4996149;28;24515;-71
2022/05/01 09:48:02;;;;;;;13.85;11.88;;;;;;;10.49;100.00;96261.50;4994741;28;24520;-71
2022/05/01 09:50:40;;;;;;;13.20;11.82;;;;;;;10.53;100.00;96263.03;5012940;28;24486;-71
2022/05/01 09:53:07;;;;;;;14.85;11.88;;;;;;;10.69;100.00;96273.38;4996721;28;24526;-71
2022/05/01 09:55:34;;;;;;;12.53;11.23;;;;;;;10.81;98.40;96272.69;5009415;28;24432;-71
2022/05/01 09:58:10;;;;;;;13.32;11.43;;;;;;;10.96;98.12;96267.56;4995820;28;24444;-71
2022/05/01 10:00:45;;;;;;;15.27;11.85;;;;;;;10.80;97.24;96273.63;4995920;28;24990;-71
2022/05/01 10:03:23;;;;;;;14.57;11.82;;;;;;;10.60;97.91;96274.69;4998343;28;24447;-71
2022/05/01 10:05:51;;;;;;;13.77;11.00;;;;;;;10.59;96.07;96264.44;5007120;28;24452;-71
2022/05/01 10:08:19;;;;;;;12.65;11.13;;;;;;;10.72;96.28;96262.00;5010457;28;24432;-71
2022/05/01 10:10:47;;;;;;;13.07;10.80;;;;;;;10.80;94.18;96271.03;4999934;28;24448;-71
2022/05/01 10:13:15;;;;;;;12.60;10.68;;;;;;;10.98;92.46;96263.97;4997496;28;24437;-71
2022/05/01 10:15:42;;;;;;;10.73;9.52;;;;;;;10.99;89.91;96265.63;5006953;28;24815;-71
2022/05/01 10:18:11;;;;;;;11.25;10.05;;;;;;;11.06;89.02;96264.38;5012760;28;24439;-71
2022/05/01 10:20:38;;;;;;;11.90;10.68;;;;;;;11.33;94.24;96261.94;5003285;28;24499;-71
2022/05/01 10:23:04;;;;;;;10.80;9.63;;;;;;;11.21;87.96;96265.25;5003734;28;25008;-71
2022/05/01 10:25:34;;;;;;;11.35;9.93;;;;;;;11.31;86.81;96260.34;5012705;28;24456;-71
2022/05/01 10:28:07;;;;;;;16.40;11.85;;;;;;;11.73;86.58;96258.78;5012419;28;24487;-71
2022/05/01 10:34:10;;;;;;;12.98;11.60;;;;;;;11.51;89.33;96256.63;4971754;28;24565;-71
2022/05/01 10:37:10;;;;;;;12.98;11.65;;;;;;;11.46;88.58;96256.03;4970468;28;20773;-71
2022/05/01 10:39:40;;;;;;;12.73;11.40;;;;;;;11.43;90.73;96238.09;4993502;28;20780;-71
2022/05/01 10:42:07;;;;;;;12.60;11.30;;;;;;;11.53;87.49;96250.44;5003236;28;20895;-71
2022/05/01 10:44:36;;;;;;;12.57;11.27;;;;;;;11.26;94.31;96249.44;5009314;28;24452;-71
2022/05/01 10:47:13;;;;;;;11.87;10.20;;;;;;;11.22;89.34;96243.59;5012654;28;24436;-71
2022/05/01 10:49:43;;;;;;;11.68;10.45;;;;;;;11.25;90.88;96243.41;5001237;28;24511;-71
2022/05/01 10:52:16;;;;;;;17.53;10.93;;;;;;;11.16;89.60;96238.78;5012990;28;24490;-71
2022/05/01 10:54:50;;;;;;;14.13;11.57;;;;;;;11.09;90.41;96245.22;4996707;28;24512;-69
2022/05/01 10:57:17;;;;;;;12.20;10.82;;;;;;;10.99;90.34;96242.31;4998709;28;24441;-71
2022/05/01 10:59:49;;;;;;;11.93;10.50;;;;;;;11.01;88.43;96237.03;5003789;28;24440;-71
2022/05/01 11:02:41;;;;;;;15.60;11.33;;;;;;;10.68;86.80;96234.59;5008161;28;24432;-71
2022/05/01 11:05:09;;;;;;;14.35;10.20;;;;;;;10.88;88.15;96237.72;5005628;28;24481;-71
2022/05/01 11:07:39;;;;;;;13.63;10.73;;;;;;;11.38;91.79;96227.97;5008358;28;24437;-71
2022/05/01 11:10:08;;;;;;;13.90;10.70;;;;;;;11.39;87.18;96235.66;4994196;28;24500;-71
2022/05/01 11:12:36;;;;;;;10.77;9.52;;;;;;;11.58;87.08;96229.41;4997929;28;24851;-71
2022/05/01 11:15:04;;;;;;;11.65;9.93;;;;;;;11.90;85.74;96219.69;4996083;28;24475;-72
2022/05/01 11:17:54;;;;;;;11.75;10.10;;;;;;;11.42;83.44;96232.06;5010047;28;24448;-72
2022/05/01 11:20:30;;;;;;;13.18;10.00;;;;;;;11.55;84.64;96216.59;4993526;28;24512;-71
2022/05/01 11:22:57;;;;;;;11.88;9.77;;;;;;;11.52;83.56;96216.78;5006566;28;24985;-71
2022/05/01 11:25:32;;;;;;;16.92;9.68;;;;;;;11.48;82.06;96216.13;5002761;28;25029;-71
2022/05/01 11:27:59;;;;;;;10.87;9.40;;;;;;;11.32;82.08;96223.16;4998012;28;24997;-72
2022/05/01 11:30:36;;;;;;;13.95;9.43;;;;;;;11.23;83.38;96223.66;5012510;28;24439;-71
2022/05/01 11:33:06;;;;;;;10.05;9.05;;;;;;;11.35;82.90;96223.81;4995306;28;25009;-71
2022/05/01 11:36:02;;;;;;;10.83;9.50;;;;;;;11.24;83.24;96226.19;4993478;28;24831;-71
2022/05/01 11:38:32;;;;;;;12.00;9.70;;;;;;;11.30;84.44;96220.63;5012212;28;24803;-71
2022/05/01 11:41:00;;;;;;;11.32;10.07;;;;;;;11.75;84.01;96218.00;4999718;28;24850;-71
2022/05/01 11:43:28;;;;;;;11.63;10.40;;;;;;;11.83;84.41;96221.84;4994580;28;24432;-71
2022/05/01 11:45:56;;;;;;;10.98;9.10;;;;;;;11.68;85.51;96221.88;5001197;28;24444;-71
2022/05/01 11:48:23;;;;;;;10.65;9.20;;;;;;;11.82;85.21;96219.28;5001485;28;24467;-71
2022/05/01 11:50:52;;;;;;;10.85;8.90;;;;;;;12.09;84.64;96220.25;4997551;28;24429;-71